Time;durP1;ratioP1;P1;durP2;ratioP2;P2;SDS_P1;SDS_P2;PMS_P1;PMS_P2;Temp;Humidity;BMP_temperature;BMP_pressure;BME280_temperature;BME280_humidity;BME280_pressure;Samples;Min_cycle;Max_cycle;Signal;HPM_P1;HPM_P2
2022/12/08 00:01:11;;;;;;;;;;;;;;;2.08;94.78613;101138.6;;;;-76
2022/12/08 00:03:33;;;;;;;1.7;0.8;;;;;;;;;;;;;-77
2022/12/08 00:11:04;;;;;;;;;;;;;;;2.07;94.94727;101120.8;;;;-77
2022/12/08 00:16:06;;;;;;;;;;;;;;;2.09;94.72266;101117;;;;-77
2022/12/08 00:21:05;;;;;;;;;;;;;;;2.13;94.52734;101109;;;;-77
2022/12/08 00:26:08;;;;;;;;;;;;;;;2.14;94.57129;101116.5;;;;-77
2022/12/08 00:31:10;;;;;;;;;;;;;;;2.15;94.60742;101096.3;;;;-77
2022/12/08 00:33:34;;;;;;;1.4;0.7;;;;;;;;;;;;;-76
2022/12/08 00:36:07;;;;;;;;;;;;;;;2.18;94.73438;101084.6;;;;-77
2022/12/08 00:41:04;;;;;;;;;;;;;;;2.22;94.77441;101085.8;;;;-77
2022/12/08 00:46:04;;;;;;;;;;;;;;;2.25;94.65039;101085.9;;;;-76
2022/12/08 00:51:04;;;;;;;;;;;;;;;2.29;94.66992;101089.4;;;;-76
2022/12/08 00:56:04;;;;;;;;;;;;;;;2.32;94.71875;101076.5;;;;-75
2022/12/08 01:01:04;;;;;;;;;;;;;;;2.35;94.48926;101075.3;;;;-76
2022/12/08 01:03:32;;;;;;;1.5;0.6;;;;;;;;;;;;;-76
2022/12/08 01:06:05;;;;;;;;;;;;;;;2.41;94.65234;101069.7;;;;-77
2022/12/08 01:11:10;;;;;;;;;;;;;;;2.42;94.55762;101062.2;;;;-76
2022/12/08 01:16:04;;;;;;;;;;;;;;;2.46;94.4375;101049.1;;;;-76
2022/12/08 01:21:09;;;;;;;;;;;;;;;2.48;94.6582;101049.1;;;;-77
2022/12/08 01:26:08;;;;;;;;;;;;;;;2.51;94.52344;101047.6;;;;-75
2022/12/08 01:31:04;;;;;;;;;;;;;;;2.51;94.45996;101044.2;;;;-76
2022/12/08 01:33:31;;;;;;;1.9;0.6;;;;;;;;;;;;;-77
2022/12/08 01:36:08;;;;;;;;;;;;;;;2.52;94.45117;101046;;;;-76
2022/12/08 01:41:04;;;;;;;;;;;;;;;2.52;94.52539;101041.1;;;;-78
2022/12/08 01:46:04;;;;;;;;;;;;;;;2.55;94.73633;101053.5;;;;-77
2022/12/08 01:51:04;;;;;;;;;;;;;;;2.58;94.9502;101038.5;;;;-77
2022/12/08 01:56:07;;;;;;;;;;;;;;;2.62;95.1543;101028.8;;;;-77
2022/12/08 02:01:04;;;;;;;;;;;;;;;2.66;95.38965;101030.9;;;;-77
2022/12/08 02:03:32;;;;;;;2.1;0.4;;;;;;;;;;;;;-76
2022/12/08 02:06:05;;;;;;;;;;;;;;;2.68;95.2207;101030.3;;;;-76
2022/12/08 02:11:04;;;;;;;;;;;;;;;2.7;95.00879;101021.8;;;;-79
2022/12/08 02:16:08;;;;;;;;;;;;;;;2.71;95.02148;101010;;;;-76
2022/12/08 02:21:06;;;;;;;;;;;;;;;2.72;94.94922;101011.1;;;;-76
2022/12/08 02:26:15;;;;;;;;;;;;;;;2.72;94.91699;101011.5;;;;-76
2022/12/08 02:31:08;;;;;;;;;;;;;;;2.71;95.02148;101016.4;;;;-76
2022/12/08 02:33:34;;;;;;;1.4;0.3;;;;;;;;;;;;;-76
2022/12/08 02:36:08;;;;;;;;;;;;;;;2.73;95.13574;101017.7;;;;-76
2022/12/08 02:41:08;;;;;;;;;;;;;;;2.74;95.0293;101008.7;;;;-76
2022/12/08 02:46:08;;;;;;;;;;;;;;;2.75;94.82422;100998.4;;;;-76
2022/12/08 02:51:04;;;;;;;;;;;;;;;2.76;94.82813;100992.8;;;;-77
2022/12/08 02:56:06;;;;;;;;;;;;;;;2.76;94.71973;100996;;;;-77
2022/12/08 03:01:11;;;;;;;;;;;;;;;2.77;94.68945;100994;;;;-76
2022/12/08 03:03:34;;;;;;;1.8;0.2;;;;;;;;;;;;;-77
2022/12/08 03:06:09;;;;;;;;;;;;;;;2.78;94.7666;100982;;;;-76
2022/12/08 03:11:06;;;;;;;;;;;;;;;2.8;94.72754;100968.5;;;;-75
2022/12/08 03:16:07;;;;;;;;;;;;;;;2.8;94.75;100958.7;;;;-75
2022/12/08 03:21:07;;;;;;;;;;;;;;;2.82;94.68848;100953.5;;;;-76
2022/12/08 03:26:07;;;;;;;;;;;;;;;2.82;94.65625;100961.1;;;;-75
2022/12/08 03:31:07;;;;;;;;;;;;;;;2.82;94.95898;100934.1;;;;-77
2022/12/08 03:33:31;;;;;;;0.7;0.3;;;;;;;;;;;;;-78
2022/12/08 03:36:06;;;;;;;;;;;;;;;2.84;94.78125;100937.7;;;;-77
2022/12/08 03:46:04;;;;;;;;;;;;;;;2.84;95.02832;100967.4;;;;-77
2022/12/08 03:51:04;;;;;;;;;;;;;;;2.84;95.07129;100954.7;;;;-75
2022/12/08 03:56:05;;;;;;;;;;;;;;;2.84;94.96289;100952.9;;;;-77
2022/12/08 04:01:04;;;;;;;;;;;;;;;2.85;94.99707;100951.1;;;;-76
2022/12/08 04:03:27;;;;;;;1;0.3;;;;;;;;;;;;;-77
2022/12/08 04:06:04;;;;;;;;;;;;;;;2.84;95.0498;100947.7;;;;-77
2022/12/08 04:11:05;;;;;;;;;;;;;;;2.84;95.30957;100932.3;;;;-76
2022/12/08 04:16:05;;;;;;;;;;;;;;;2.83;95.21191;100928.8;;;;-77
2022/12/08 04:21:05;;;;;;;;;;;;;;;2.84;95.03906;100927.3;;;;-76
2022/12/08 04:26:04;;;;;;;;;;;;;;;2.84;94.95215;100930.2;;;;-77
2022/12/08 04:31:04;;;;;;;;;;;;;;;2.82;94.9375;100926.4;;;;-76
2022/12/08 04:33:27;;;;;;;0.9;0.3;;;;;;;;;;;;;-77
2022/12/08 04:36:05;;;;;;;;;;;;;;;2.83;94.82227;100924.5;;;;-77
2022/12/08 04:41:04;;;;;;;;;;;;;;;2.8;94.84863;100919.9;;;;-76
2022/12/08 04:46:04;;;;;;;;;;;;;;;2.79;94.8125;100912.7;;;;-77
2022/12/08 04:51:04;;;;;;;;;;;;;;;2.78;94.81055;100912.3;;;;-76
2022/12/08 04:56:04;;;;;;;;;;;;;;;2.77;94.86426;100908.6;;;;-76
2022/12/08 05:01:04;;;;;;;;;;;;;;;2.77;95.11133;100901.7;;;;-76
2022/12/08 05:03:26;;;;;;;1;0.3;;;;;;;;;;;;;-77
2022/12/08 05:06:06;;;;;;;;;;;;;;;2.73;95.0918;100900.2;;;;-76
2022/12/08 05:11:09;;;;;;;;;;;;;;;2.73;94.97168;100903.6;;;;-76
2022/12/08 05:16:10;;;;;;;;;;;;;;;2.7;94.96484;100902.5;;;;-77
2022/12/08 05:21:04;;;;;;;;;;;;;;;2.67;95.06738;100899.8;;;;-75
2022/12/08 05:26:05;;;;;;;;;;;;;;;2.66;95.1084;100892.6;;;;-76
2022/12/08 05:31:06;;;;;;;;;;;;;;;2.66;95.04395;100894.4;;;;-76
2022/12/08 05:33:25;;;;;;;0.6;0.2;;;;;;;;;;;;;-75
2022/12/08 05:36:04;;;;;;;;;;;;;;;2.63;95.0918;100894;;;;-76
2022/12/08 05:41:05;;;;;;;;;;;;;;;2.6;95.16992;100894.8;;;;-75
2022/12/08 05:46:05;;;;;;;;;;;;;;;2.57;95.08691;100889.1;;;;-75
2022/12/08 05:51:04;;;;;;;;;;;;;;;2.54;95.12598;100886.9;;;;-76
2022/12/08 05:56:04;;;;;;;;;;;;;;;2.51;95.20605;100879.3;;;;-76
2022/12/08 06:01:04;;;;;;;;;;;;;;;2.49;95.15918;100874.8;;;;-76
2022/12/08 06:03:24;;;;;;;0.6;0.2;;;;;;;;;;;;;-76
2022/12/08 06:06:04;;;;;;;;;;;;;;;2.46;95.32422;100870.4;;;;-76
2022/12/08 06:11:04;;;;;;;;;;;;;;;2.44;95.33105;100873.1;;;;-75
2022/12/08 06:16:09;;;;;;;;;;;;;;;2.44;95.54688;100869.6;;;;-75
2022/12/08 06:21:09;;;;;;;;;;;;;;;2.44;95.2207;100864.1;;;;-75
2022/12/08 06:26:08;;;;;;;;;;;;;;;2.42;95.24902;100865.5;;;;-76
2022/12/08 06:31:09;;;;;;;;;;;;;;;2.4;95.22559;100868;;;;-77
2022/12/08 06:33:23;;;;;;;1.4;0.4;;;;;;;;;;;;;-77
2022/12/08 06:36:05;;;;;;;;;;;;;;;2.41;95.33301;100878.3;;;;-75
2022/12/08 06:41:04;;;;;;;;;;;;;;;2.42;95.17383;100887.4;;;;-76
2022/12/08 06:46:04;;;;;;;;;;;;;;;2.41;95.10645;100893.7;;;;-75
2022/12/08 06:51:08;;;;;;;;;;;;;;;2.41;95.1709;100891.4;;;;-76
2022/12/08 06:56:05;;;;;;;;;;;;;;;2.41;95.18262;100892.3;;;;-75
2022/12/08 07:01:06;;;;;;;;;;;;;;;2.41;95.07422;100887.5;;;;-76
2022/12/08 07:03:23;;;;;;;2.7;0.5;;;;;;;;;;;;;-75
2022/12/08 07:06:05;;;;;;;;;;;;;;;2.41;95.19531;100891.2;;;;-76
2022/12/08 07:11:09;;;;;;;;;;;;;;;2.41;95.22559;100890.1;;;;-75
2022/12/08 07:16:07;;;;;;;;;;;;;;;2.42;95.24902;100897.8;;;;-76
2022/12/08 07:21:06;;;;;;;;;;;;;;;2.41;95.2041;100895.9;;;;-76
2022/12/08 07:26:07;;;;;;;;;;;;;;;2.4;95.18262;100892.2;;;;-77
2022/12/08 07:31:04;;;;;;;;;;;;;;;2.4;95.21289;100898.8;;;;-75
2022/12/08 07:33:21;;;;;;;0.7;0.4;;;;;;;;;;;;;-76
2022/12/08 07:36:05;;;;;;;;;;;;;;;2.37;95.2168;100894.8;;;;-76
2022/12/08 07:41:04;;;;;;;;;;;;;;;2.37;95.25;100895.9;;;;-75
2022/12/08 07:46:04;;;;;;;;;;;;;;;2.36;95.29102;100896.1;;;;-76
2022/12/08 07:51:07;;;;;;;;;;;;;;;2.37;95.23633;100901.4;;;;-76
2022/12/08 07:56:08;;;;;;;;;;;;;;;2.4;95.18262;100892.2;;;;-76
2022/12/08 08:01:07;;;;;;;;;;;;;;;2.4;95.32031;100889.4;;;;-76
2022/12/08 08:03:21;;;;;;;1.9;0.6;;;;;;;;;;;;;-76
2022/12/08 08:06:09;;;;;;;;;;;;;;;2.4;95.35547;100880.7;;;;-77
2022/12/08 08:11:04;;;;;;;;;;;;;;;2.41;95.52832;100883.3;;;;-76
2022/12/08 08:16:09;;;;;;;;;;;;;;;2.42;95.33496;100887;;;;-77
2022/12/08 08:21:04;;;;;;;;;;;;;;;2.41;95.43066;100890.1;;;;-76
2022/12/08 08:26:06;;;;;;;;;;;;;;;2.41;95.36621;100890.1;;;;-77
2022/12/08 08:31:04;;;;;;;;;;;;;;;2.41;95.59277;100893;;;;-76
2022/12/08 08:33:20;;;;;;;1;0.6;;;;;;;;;;;;;-75
2022/12/08 08:36:04;;;;;;;;;;;;;;;2.44;95.2959;100912.3;;;;-78
2022/12/08 08:41:09;;;;;;;;;;;;;;;2.44;95.48242;100920.9;;;;-77
2022/12/08 08:46:05;;;;;;;;;;;;;;;2.49;95.43848;100925.2;;;;-77
2022/12/08 08:51:09;;;;;;;;;;;;;;;2.5;95.34473;100903.6;;;;-78
2022/12/08 08:56:04;;;;;;;;;;;;;;;2.52;95.23828;100892.6;;;;-78
2022/12/08 09:01:04;;;;;;;;;;;;;;;2.53;95.30762;100886.3;;;;-77
2022/12/08 09:03:19;;;;;;;3.5;0.8;;;;;;;;;;;;;-77
2022/12/08 09:06:04;;;;;;;;;;;;;;;2.55;95.2793;100889.1;;;;-76
2022/12/08 09:11:04;;;;;;;;;;;;;;;2.58;95.31738;100886.5;;;;-77
2022/12/08 09:16:04;;;;;;;;;;;;;;;2.6;95.3125;100892;;;;-76
2022/12/08 09:21:06;;;;;;;;;;;;;;;2.63;95.40527;100889.8;;;;-77
2022/12/08 09:26:05;;;;;;;;;;;;;;;2.66;95.44434;100893.1;;;;-77
2022/12/08 09:31:04;;;;;;;;;;;;;;;2.67;95.4043;100892.2;;;;-76
2022/12/08 09:33:18;;;;;;;0.9;0.5;;;;;;;;;;;;;-76
2022/12/08 09:36:08;;;;;;;;;;;;;;;2.71;95.4541;100893.6;;;;-76
2022/12/08 09:41:05;;;;;;;;;;;;;;;2.74;95.44043;100895.6;;;;-77
2022/12/08 09:46:07;;;;;;;;;;;;;;;2.77;95.35156;100894.1;;;;-76
2022/12/08 09:51:06;;;;;;;;;;;;;;;2.8;95.31348;100895.2;;;;-76
2022/12/08 09:56:06;;;;;;;;;;;;;;;2.86;95.33691;100896.8;;;;-76
2022/12/08 10:01:05;;;;;;;;;;;;;;;2.89;95.4082;100906.1;;;;-76
2022/12/08 10:03:18;;;;;;;2.9;0.7;;;;;;;;;;;;;-75
2022/12/08 10:06:09;;;;;;;;;;;;;;;2.93;95.66699;100903.5;;;;-76
2022/12/08 10:11:10;;;;;;;;;;;;;;;2.97;95.80469;100892.4;;;;-76
2022/12/08 10:16:10;;;;;;;;;;;;;;;3.03;95.46191;100881.4;;;;-76
2022/12/08 10:21:14;;;;;;;;;;;;;;;3.1;95.71582;100875.3;;;;-76
2022/12/08 10:26:06;;;;;;;;;;;;;;;3.19;95.39648;100864.2;;;;-76
2022/12/08 10:31:04;;;;;;;;;;;;;;;3.29;95.78711;100861.9;;;;-75
2022/12/08 10:33:18;;;;;;;4.1;1;;;;;;;;;;;;;-76
2022/12/08 10:36:04;;;;;;;;;;;;;;;3.46;95.81641;100855.4;;;;-75
2022/12/08 10:41:07;;;;;;;;;;;;;;;3.55;95.13184;100863.4;;;;-76
2022/12/08 10:46:14;;;;;;;;;;;;;;;3.58;94.94336;100869.6;;;;-76
2022/12/08 10:51:04;;;;;;;;;;;;;;;3.57;94.81348;100862.7;;;;-76
2022/12/08 10:56:18;;;;;;;;;;;;;;;3.53;95.12793;100864.5;;;;-76
2022/12/08 11:01:05;;;;;;;;;;;;;;;3.53;95.00879;100867.9;;;;-76
2022/12/08 11:03:25;;;;;;;2.9;0.8;;;;;;;;;;;;;-76
2022/12/08 11:06:13;;;;;;;;;;;;;;;3.56;94.99316;100870.8;;;;-77
2022/12/08 11:11:05;;;;;;;;;;;;;;;3.58;94.56348;100880.8;;;;-76
2022/12/08 11:16:05;;;;;;;;;;;;;;;3.57;94.95215;100883.5;;;;-77
2022/12/08 11:21:10;;;;;;;;;;;;;;;3.52;94.85547;100869;;;;-76
2022/12/08 11:26:07;;;;;;;;;;;;;;;3.45;94.89355;100854.8;;;;-76
2022/12/08 11:31:07;;;;;;;;;;;;;;;3.4;94.99219;100838.5;;;;-77
2022/12/08 11:33:21;;;;;;;3.2;1;;;;;;;;;;;;;-77
2022/12/08 11:36:07;;;;;;;;;;;;;;;3.31;95.30566;100842.8;;;;-78
2022/12/08 11:41:07;;;;;;;;;;;;;;;3.25;95.37988;100829.6;;;;-76
2022/12/08 11:46:05;;;;;;;;;;;;;;;3.21;95.38086;100819.9;;;;-78
2022/12/08 11:51:06;;;;;;;;;;;;;;;3.12;95.49023;100820.1;;;;-78
2022/12/08 11:56:09;;;;;;;;;;;;;;;3.09;95.39844;100819.3;;;;-78
2022/12/08 12:01:04;;;;;;;;;;;;;;;3.06;95.28418;100810.2;;;;-78
2022/12/08 12:03:20;;;;;;;2.9;0.9;;;;;;;;;;;;;-77
2022/12/08 12:06:13;;;;;;;;;;;;;;;3.07;95.09082;100801;;;;-76
2022/12/08 12:11:11;;;;;;;;;;;;;;;3.1;95.02344;100797.7;;;;-77
2022/12/08 12:16:16;;;;;;;;;;;;;;;3.33;94.97559;100803.3;;;;-77
2022/12/08 12:21:09;;;;;;;;;;;;;;;3.23;94.39063;100793.4;;;;-76
2022/12/08 12:26:05;;;;;;;;;;;;;;;3.13;94.60645;100803.3;;;;-77
2022/12/08 12:31:06;;;;;;;;;;;;;;;3.11;94.99121;100805;;;;-76
2022/12/08 12:33:19;;;;;;;1.9;0.8;;;;;;;;;;;;;-76
2022/12/08 12:36:05;;;;;;;;;;;;;;;3.11;95.21777;100809.6;;;;-76
2022/12/08 12:41:05;;;;;;;;;;;;;;;3.13;95.20215;100805.8;;;;-77
2022/12/08 12:46:15;;;;;;;;;;;;;;;3.17;95.19922;100803;;;;-76
2022/12/08 12:51:15;;;;;;;;;;;;;;;3.18;95.30957;100800.7;;;;-76
2022/12/08 12:56:08;;;;;;;;;;;;;;;3.19;95.26855;100802.7;;;;-75
2022/12/08 13:01:15;;;;;;;;;;;;;;;3.18;95.2666;100801.8;;;;-75
2022/12/08 13:03:18;;;;;;;2.3;0.9;;;;;;;;;;;;;-77
2022/12/08 13:06:04;;;;;;;;;;;;;;;3.14;95.21289;100797.5;;;;-76
2022/12/08 13:11:07;;;;;;;;;;;;;;;3.1;95.20703;100794.1;;;;-75
2022/12/08 13:16:07;;;;;;;;;;;;;;;3.07;95.33984;100784.3;;;;-76
2022/12/08 13:21:07;;;;;;;;;;;;;;;3.03;95.31055;100782.7;;;;-77
2022/12/08 13:26:18;;;;;;;;;;;;;;;3.01;95.39063;100779.9;;;;-77
2022/12/08 13:31:05;;;;;;;;;;;;;;;3.02;95.38184;100782.6;;;;-76
2022/12/08 13:33:19;;;;;;;2.3;1.2;;;;;;;;;;;;;-75
2022/12/08 13:36:12;;;;;;;;;;;;;;;3.06;95.41406;100776.1;;;;-77
2022/12/08 13:41:06;;;;;;;;;;;;;;;3.11;95.31543;100759.4;;;;-76
2022/12/08 13:46:07;;;;;;;;;;;;;;;3.15;95.31445;100753;;;;-76
2022/12/08 13:51:11;;;;;;;;;;;;;;;3.18;95.30957;100749.8;;;;-76
2022/12/08 13:56:05;;;;;;;;;;;;;;;3.2;95.3252;100751;;;;-75
2022/12/08 14:01:08;;;;;;;;;;;;;;;3.21;95.45703;100752.7;;;;-76
2022/12/08 14:03:15;;;;;;;2.4;1.1;;;;;;;;;;;;;-76
2022/12/08 14:06:06;;;;;;;;;;;;;;;3.21;95.35059;100756.1;;;;-75
2022/12/08 14:11:07;;;;;;;;;;;;;;;3.23;95.45215;100758.5;;;;-77
2022/12/08 14:16:05;;;;;;;;;;;;;;;3.23;95.48242;100756.7;;;;-76
2022/12/08 14:21:10;;;;;;;;;;;;;;;3.21;95.48926;100755.8;;;;-75
2022/12/08 14:26:04;;;;;;;;;;;;;;;3.14;95.6377;100749.9;;;;-75
2022/12/08 14:31:06;;;;;;;;;;;;;;;3.04;95.68945;100745.7;;;;-76
2022/12/08 14:33:17;;;;;;;2.4;1.1;;;;;;;;;;;;;-75
2022/12/08 14:36:05;;;;;;;;;;;;;;;2.99;95.625;100747.6;;;;-76
2022/12/08 14:41:09;;;;;;;;;;;;;;;2.89;95.54883;100741.9;;;;-75
2022/12/08 14:46:06;;;;;;;;;;;;;;;2.81;95.66016;100747.2;;;;-75
2022/12/08 14:51:09;;;;;;;;;;;;;;;2.74;95.5791;100748.5;;;;-75
2022/12/08 14:56:05;;;;;;;;;;;;;;;2.64;95.5918;100744.8;;;;-75
2022/12/08 15:01:05;;;;;;;;;;;;;;;2.58;95.63086;100733.7;;;;-76
2022/12/08 15:03:16;;;;;;;2.1;1.1;;;;;;;;;;;;;-76
2022/12/08 15:06:07;;;;;;;;;;;;;;;2.51;95.62598;100734.2;;;;-76
2022/12/08 15:11:27;;;;;;;;;;;;;;;2.42;95.51953;100739.9;;;;-76
2022/12/08 15:16:05;;;;;;;;;;;;;;;2.39;95.4375;100746.1;;;;-76
2022/12/08 15:21:11;;;;;;;;;;;;;;;2.31;95.38867;100752.4;;;;-78
2022/12/08 15:26:07;;;;;;;;;;;;;;;2.28;95.55566;100755.2;;;;-77
2022/12/08 15:31:05;;;;;;;;;;;;;;;2.24;95.66406;100746.1;;;;-77
2022/12/08 15:33:15;;;;;;;2.6;1.3;;;;;;;;;;;;;-77
2022/12/08 15:36:05;;;;;;;;;;;;;;;2.23;95.57617;100755.3;;;;-77
2022/12/08 15:41:04;;;;;;;;;;;;;;;2.19;95.6416;100761.2;;;;-76
2022/12/08 15:46:04;;;;;;;;;;;;;;;2.2;95.67773;100768.3;;;;-76
2022/12/08 15:51:04;;;;;;;;;;;;;;;2.19;95.60938;100772.1;;;;-76
2022/12/08 15:56:07;;;;;;;;;;;;;;;2.15;95.81934;100765.2;;;;-76
2022/12/08 16:01:05;;;;;;;;;;;;;;;2.16;95.54883;100763.3;;;;-76
2022/12/08 16:03:21;;;;;;;5.4;1.7;;;;;;;;;;;;;-77
2022/12/08 16:06:04;;;;;;;;;;;;;;;2.14;95.63086;100761.3;;;;-77
2022/12/08 16:16:05;;;;;;;;;;;;;;;2.05;95.57031;100762.3;;;;-77
2022/12/08 16:21:05;;;;;;;;;;;;;;;2.03;95.62891;100767.8;;;;-77
2022/12/08 16:26:04;;;;;;;;;;;;;;;2.05;95.57715;100764.5;;;;-76
2022/12/08 16:31:05;;;;;;;;;;;;;;;2;95.38281;100766;;;;-77
2022/12/08 16:33:15;;;;;;;4.2;1.7;;;;;;;;;;;;;-77
2022/12/08 16:36:04;;;;;;;;;;;;;;;1.99;95.59668;100764.8;;;;-76
2022/12/08 16:46:04;;;;;;;;;;;;;;;1.95;95.36035;100762.6;;;;-77
2022/12/08 16:51:08;;;;;;;;;;;;;;;1.92;95.47266;100756.2;;;;-79
2022/12/08 16:56:04;;;;;;;;;;;;;;;1.92;95.38867;100765.1;;;;-77
2022/12/08 17:01:04;;;;;;;;;;;;;;;1.93;95.4873;100769;;;;-77
2022/12/08 17:03:12;;;;;;;3.6;1.9;;;;;;;;;;;;;-77
2022/12/08 17:06:04;;;;;;;;;;;;;;;1.91;95.4082;100768.9;;;;-77
2022/12/08 17:11:11;;;;;;;;;;;;;;;1.86;95.10449;100761.2;;;;-77
2022/12/08 17:16:04;;;;;;;;;;;;;;;1.82;95.40723;100753;;;;-77
2022/12/08 17:21:04;;;;;;;;;;;;;;;1.8;95.48047;100759;;;;-77
2022/12/08 17:26:04;;;;;;;;;;;;;;;1.8;95.4248;100766.7;;;;-76
2022/12/08 17:31:04;;;;;;;;;;;;;;;1.81;95.31055;100768.8;;;;-77
2022/12/08 17:33:11;;;;;;;5;2.4;;;;;;;;;;;;;-76
2022/12/08 17:36:04;;;;;;;;;;;;;;;1.72;95.18262;100772.1;;;;-76
2022/12/08 17:41:09;;;;;;;;;;;;;;;1.66;95.4375;100769.1;;;;-77
2022/12/08 17:46:04;;;;;;;;;;;;;;;1.58;95.29004;100765.5;;;;-76
2022/12/08 17:51:04;;;;;;;;;;;;;;;1.53;95.29102;100768.4;;;;-76
2022/12/08 17:56:04;;;;;;;;;;;;;;;1.46;95.38281;100771.6;;;;-77
2022/12/08 18:01:09;;;;;;;;;;;;;;;1.41;95.4043;100773.6;;;;-78
2022/12/08 18:03:10;;;;;;;6.3;2.7;;;;;;;;;;;;;-76
2022/12/08 18:06:06;;;;;;;;;;;;;;;1.33;95.21191;100775.8;;;;-77
2022/12/08 18:11:04;;;;;;;;;;;;;;;1.24;95.22656;100774.7;;;;-75
2022/12/08 18:16:04;;;;;;;;;;;;;;;1.18;95.35254;100788.8;;;;-77
2022/12/08 18:21:04;;;;;;;;;;;;;;;1.07;95.1875;100785.9;;;;-76
2022/12/08 18:26:05;;;;;;;;;;;;;;;0.99;95.21289;100782.7;;;;-78
2022/12/08 18:31:04;;;;;;;;;;;;;;;0.88;95.12598;100777;;;;-76
2022/12/08 18:33:10;;;;;;;5.9;3.1;;;;;;;;;;;;;-76
2022/12/08 18:36:04;;;;;;;;;;;;;;;0.84;95.23438;100778.4;;;;-77
2022/12/08 18:41:10;;;;;;;;;;;;;;;0.74;95.09375;100781.5;;;;-77
2022/12/08 18:46:08;;;;;;;;;;;;;;;0.6;95.28906;100780;;;;-76
2022/12/08 18:51:04;;;;;;;;;;;;;;;0.54;95.13574;100784.4;;;;-76
2022/12/08 18:56:04;;;;;;;;;;;;;;;0.47;95.1084;100790.4;;;;-75
2022/12/08 19:01:04;;;;;;;;;;;;;;;0.42;95.25977;100787.6;;;;-75
2022/12/08 19:03:10;;;;;;;7.7;3.5;;;;;;;;;;;;;-76
2022/12/08 19:06:13;;;;;;;;;;;;;;;0.32;95.35547;100787.6;;;;-76
2022/12/08 19:11:04;;;;;;;;;;;;;;;0.29;95.10254;100793;;;;-76
2022/12/08 19:16:04;;;;;;;;;;;;;;;0.16;94.89941;100796.9;;;;-76
2022/12/08 19:21:04;;;;;;;;;;;;;;;0.13;95.2373;100806.5;;;;-75
2022/12/08 19:26:04;;;;;;;;;;;;;;;0.15;95.08887;100809.4;;;;-75
2022/12/08 19:31:07;;;;;;;;;;;;;;;0.16;94.98535;100810.5;;;;-75
2022/12/08 19:33:08;;;;;;;7.4;3.7;;;;;;;;;;;;;-75
2022/12/08 19:36:07;;;;;;;;;;;;;;;0.21;94.75098;100812.9;;;;-75
2022/12/08 19:46:04;;;;;;;;;;;;;;;0.37;94.89258;100818.7;;;;-74
2022/12/08 19:51:04;;;;;;;;;;;;;;;0.4;95.0293;100818.2;;;;-75
2022/12/08 19:56:04;;;;;;;;;;;;;;;0.49;95.02832;100817.9;;;;-75
2022/12/08 20:01:05;;;;;;;;;;;;;;;0.5;94.97461;100822.7;;;;-75
2022/12/08 20:03:08;;;;;;;9.4;3.7;;;;;;;;;;;;;-77
2022/12/08 20:06:05;;;;;;;;;;;;;;;0.54;95.0918;100818.8;;;;-75
2022/12/08 20:11:04;;;;;;;;;;;;;;;0.58;95.23145;100826.3;;;;-74
2022/12/08 20:16:05;;;;;;;;;;;;;;;0.7;94.97754;100832.6;;;;-76
2022/12/08 20:21:06;;;;;;;;;;;;;;;0.73;95.00586;100834.2;;;;-75
2022/12/08 20:26:07;;;;;;;;;;;;;;;0.77;95.28223;100843.3;;;;-76
2022/12/08 20:31:04;;;;;;;;;;;;;;;0.79;95.25391;100850.8;;;;-76
2022/12/08 20:33:07;;;;;;;10.3;4.8;;;;;;;;;;;;;-76
2022/12/08 20:36:09;;;;;;;;;;;;;;;0.86;95.08789;100850.9;;;;-76
2022/12/08 20:41:07;;;;;;;;;;;;;;;0.88;95.13672;100853.4;;;;-76
2022/12/08 20:46:11;;;;;;;;;;;;;;;0.91;95.21777;100859.3;;;;-77
2022/12/08 20:51:04;;;;;;;;;;;;;;;0.95;95.03223;100857.8;;;;-75
2022/12/08 20:56:04;;;;;;;;;;;;;;;0.99;95.15039;100862;;;;-76
2022/12/08 21:01:06;;;;;;;;;;;;;;;1.03;95.12598;100857.6;;;;-77
2022/12/08 21:03:06;;;;;;;13;6.1;;;;;;;;;;;;;-75
2022/12/08 21:06:05;;;;;;;;;;;;;;;1.08;95.11426;100858.1;;;;-78
2022/12/08 21:11:04;;;;;;;;;;;;;;;1.07;95.10156;100857.3;;;;-76
2022/12/08 21:16:04;;;;;;;;;;;;;;;1.12;94.96094;100860.6;;;;-77
2022/12/08 21:21:08;;;;;;;;;;;;;;;1.12;95.04883;100856;;;;-76
2022/12/08 21:26:04;;;;;;;;;;;;;;;1.16;94.82031;100861.5;;;;-75
2022/12/08 21:31:08;;;;;;;;;;;;;;;1.17;94.99609;100858.2;;;;-77
2022/12/08 21:33:04;;;;;;;14.2;6.4;;;;;;;;;;;;;-75
2022/12/08 21:36:09;;;;;;;;;;;;;;;1.19;95.04199;100860.3;;;;-76
2022/12/08 21:41:09;;;;;;;;;;;;;;;1.22;94.84277;100866;;;;-77
2022/12/08 21:46:06;;;;;;;;;;;;;;;1.23;94.73926;100866.7;;;;-78
2022/12/08 21:51:06;;;;;;;;;;;;;;;1.29;94.83789;100867;;;;-76
2022/12/08 21:56:04;;;;;;;;;;;;;;;1.26;95.03613;100870.8;;;;-76
2022/12/08 22:01:07;;;;;;;;;;;;;;;1.29;95.03125;100871.5;;;;-76
2022/12/08 22:03:03;;;;;;;13.7;6.3;;;;;;;;;;;;;-76
2022/12/08 22:06:06;;;;;;;;;;;;;;;1.37;94.75879;100871.9;;;;-76
2022/12/08 22:11:04;;;;;;;;;;;;;;;1.36;94.72461;100869.5;;;;-77
2022/12/08 22:16:05;;;;;;;;;;;;;;;1.35;94.84082;100874.5;;;;-76
2022/12/08 22:21:04;;;;;;;;;;;;;;;1.38;94.79492;100878.3;;;;-76
2022/12/08 22:26:04;;;;;;;;;;;;;;;1.41;94.76855;100879.9;;;;-76
2022/12/08 22:31:09;;;;;;;;;;;;;;;1.43;94.68848;100875.6;;;;-75
2022/12/08 22:33:02;;;;;;;13;5.8;;;;;;;;;;;;;-76
2022/12/08 22:36:05;;;;;;;;;;;;;;;1.43;94.56934;100874.3;;;;-76
2022/12/08 22:41:06;;;;;;;;;;;;;;;1.41;94.72363;100875.4;;;;-77
2022/12/08 22:46:04;;;;;;;;;;;;;;;1.4;94.63672;100880;;;;-76
2022/12/08 22:51:05;;;;;;;;;;;;;;;1.38;94.64355;100872.7;;;;-75
2022/12/08 22:56:06;;;;;;;;;;;;;;;1.35;94.74316;100865.2;;;;-76
2022/12/08 23:01:04;;;;;;;;;;;;;;;1.31;94.72461;100864.4;;;;-75
2022/12/08 23:03:01;;;;;;;10.6;5.3;;;;;;;;;;;;;-76
2022/12/08 23:06:05;;;;;;;;;;;;;;;1.27;94.5752;100859.7;;;;-76
2022/12/08 23:11:04;;;;;;;;;;;;;;;1.2;94.67676;100850.5;;;;-76
2022/12/08 23:16:04;;;;;;;;;;;;;;;1.17;94.80078;100847.5;;;;-77
2022/12/08 23:21:09;;;;;;;;;;;;;;;1.12;94.79883;100843;;;;-77
2022/12/08 23:26:04;;;;;;;;;;;;;;;1.14;94.83789;100843.3;;;;-77
2022/12/08 23:31:09;;;;;;;;;;;;;;;1.11;94.77539;100838.7;;;;-76
2022/12/08 23:33:01;;;;;;;10.3;5.2;;;;;;;;;;;;;-77
2022/12/08 23:36:04;;;;;;;;;;;;;;;1.08;94.86621;100841;;;;-77
2022/12/08 23:41:07;;;;;;;;;;;;;;;1.04;94.83691;100838.5;;;;-77
2022/12/08 23:46:04;;;;;;;;;;;;;;;1.02;94.76855;100837.9;;;;-77
2022/12/08 23:51:05;;;;;;;;;;;;;;;0.94;94.76074;100829.7;;;;-75
2022/12/08 23:56:09;;;;;;;;;;;;;;;0.83;94.89844;100829.9;;;;-76
